Time;durP1;ratioP1;P1;durP2;ratioP2;P2;SDS_P1;SDS_P2;PMS_P1;PMS_P2;Temp;Humidity;BMP_temperature;BMP_pressure;BME280_temperature;BME280_humidity;BME280_pressure;Samples;Min_cycle;Max_cycle;Signal;HPM_P1;HPM_P2
2022/06/02 00:01:43;;;;;;;30.90;9.73;;;;;;;19.13;66.04;95102.53;5016753;28;20034;-79
2022/06/02 00:04:16;;;;;;;24.02;7.93;;;;;;;19.14;65.77;95117.28;5011607;28;20033;-78
2022/06/02 00:07:06;;;;;;;26.40;8.73;;;;;;;19.11;65.96;95109.94;4998738;28;20061;-79
2022/06/02 00:09:45;;;;;;;41.05;13.45;;;;;;;19.04;66.26;95104.22;5021856;28;20046;-79
2022/06/02 00:12:24;;;;;;;34.38;12.48;;;;;;;19.00;66.54;95108.44;5020214;28;20084;-79
2022/06/02 00:15:05;;;;;;;31.65;15.27;;;;;;;18.93;66.35;95107.22;5021956;28;20058;-80
2022/06/02 00:17:42;;;;;;;44.17;16.15;;;;;;;18.88;66.60;95100.16;5014776;28;20030;-80
2022/06/02 00:20:18;;;;;;;44.15;19.10;;;;;;;18.85;66.61;95105.94;5005839;28;20068;-80
2022/06/02 00:22:56;;;;;;;30.10;13.48;;;;;;;18.81;66.73;95110.19;5021809;23;20037;-80
2022/06/02 00:25:34;;;;;;;35.08;14.55;;;;;;;18.78;66.95;95108.91;5025390;28;20042;-79
2022/06/02 00:28:15;;;;;;;40.60;15.30;;;;;;;18.72;66.92;95102.13;5021276;28;20042;-80
2022/06/02 00:33:28;;;;;;;55.17;23.48;;;;;;;18.64;66.85;95115.06;5038222;23;20053;-79
2022/06/02 00:36:01;;;;;;;61.35;22.90;;;;;;;18.58;66.66;95099.28;5014001;28;20026;-79
2022/06/02 00:38:35;;;;;;;53.13;20.98;;;;;;;18.53;66.95;95101.94;4997746;28;20119;-79
2022/06/02 00:41:13;;;;;;;51.97;20.08;;;;;;;18.49;67.10;95108.03;5012191;28;20030;-81
2022/06/02 00:44:07;;;;;;;50.90;19.85;;;;;;;18.45;67.28;95113.06;5014055;28;20029;-82
2022/06/02 00:46:33;;;;;;;52.33;19.30;;;;;;;18.42;67.39;95103.09;5012498;28;20129;-80
2022/06/02 00:48:58;;;;;;;41.60;17.55;;;;;;;18.39;67.45;95105.47;5014584;28;20080;-80
2022/06/02 00:51:35;;;;;;;37.45;15.05;;;;;;;18.34;67.79;95105.50;5012892;28;20049;-80
2022/06/02 00:59:53;;;;;;;19.48;8.48;;;;;;;18.23;67.62;95105.56;5053512;23;20141;-79
2022/06/02 01:02:18;;;;;;;17.48;7.85;;;;;;;18.19;67.90;95114.25;5155625;23;20457;-79
2022/06/02 01:04:43;;;;;;;21.25;9.73;;;;;;;18.20;67.98;95107.94;5033912;28;20032;-79
2022/06/02 01:07:41;;;;;;;25.67;10.57;;;;;;;18.18;67.73;95110.06;5014644;28;20030;-79
2022/06/02 01:10:13;;;;;;;29.63;13.68;;;;;;;18.11;68.02;95110.38;5033828;28;20525;-79
2022/06/02 01:15:29;;;;;;;50.20;19.58;;;;;;;18.07;68.21;95114.59;5072538;23;20053;-80
2022/06/02 01:18:13;;;;;;;51.65;22.13;;;;;;;18.06;68.28;95113.03;5016814;28;20125;-80
2022/06/02 01:20:45;;;;;;;67.95;26.17;;;;;;;18.06;68.17;95120.13;5023410;28;20041;-79
2022/06/02 01:23:39;;;;;;;85.82;27.15;;;;;;;18.02;68.29;95114.63;5020462;28;20041;-80
2022/06/02 01:26:27;;;;;;;61.47;25.52;;;;;;;17.97;68.59;95109.38;5020140;28;20045;-81
2022/06/02 01:28:59;;;;;;;46.50;18.85;;;;;;;17.92;69.29;95107.56;5025729;28;20053;-80
2022/06/02 01:31:43;;;;;;;27.80;11.33;;;;;;;17.99;69.49;95115.94;5009095;28;20104;-81
2022/06/02 01:34:27;;;;;;;20.15;10.05;;;;;;;18.00;69.88;95112.25;5047481;23;20304;-81
2022/06/02 01:36:58;;;;;;;24.15;10.52;;;;;;;17.99;69.72;95105.41;5017548;28;20044;-83
2022/06/02 01:43:02;;;;;;;42.97;20.52;;;;;;;18.04;69.54;95114.34;5042192;23;20046;-80
2022/06/02 01:45:49;;;;;;;36.63;16.70;;;;;;;18.03;69.40;95108.28;5040704;28;20053;-81
2022/06/02 01:48:53;;;;;;;36.03;17.45;;;;;;;18.04;69.50;95106.44;5052443;23;20057;-81
2022/06/02 01:51:34;;;;;;;52.30;23.40;;;;;;;18.02;69.38;95116.47;5026111;28;20080;-81
2022/06/02 01:54:24;;;;;;;53.60;23.17;;;;;;;17.96;69.40;95108.59;5018558;28;20042;-80
2022/06/02 01:57:14;;;;;;;45.28;17.60;;;;;;;17.97;68.98;95115.44;5007460;28;20057;-80
2022/06/02 01:59:54;;;;;;;28.58;12.50;;;;;;;17.94;69.44;95107.31;5016220;28;20036;-80
2022/06/02 02:03:02;;;;;;;36.05;13.40;;;;;;;17.89;69.53;95100.19;5016953;28;20030;-80
2022/06/02 02:05:52;;;;;;;33.95;12.43;;;;;;;17.86;69.46;95106.00;5012661;28;20045;-81
2022/06/02 02:08:44;;;;;;;28.25;11.35;;;;;;;17.81;70.00;95108.66;5015621;28;20057;-81
2022/06/02 02:11:30;;;;;;;28.52;12.25;;;;;;;17.79;70.36;95105.53;5018200;28;20096;-80
2022/06/02 02:14:28;;;;;;;33.47;12.30;;;;;;;17.77;70.41;95110.25;5019110;28;20030;-80
2022/06/02 02:17:29;;;;;;;41.20;14.27;;;;;;;17.72;70.61;95107.63;5021778;28;20034;-80
2022/06/02 02:20:09;;;;;;;41.67;15.60;;;;;;;17.71;70.42;95108.69;5007659;28;20033;-80
2022/06/02 02:22:46;;;;;;;33.00;15.48;;;;;;;17.70;70.23;95104.50;5021929;28;20030;-81
2022/06/02 02:25:22;;;;;;;39.90;17.90;;;;;;;17.68;70.57;95101.34;5019134;28;20033;-81
2022/06/02 02:28:16;;;;;;;48.63;19.38;;;;;;;17.62;70.55;95105.81;5030520;23;20662;-80
2022/06/02 02:30:47;;;;;;;73.00;35.42;;;;;;;17.58;70.42;95104.78;5028818;28;20076;-80
2022/06/02 02:33:46;;;;;;;82.70;37.80;;;;;;;17.56;70.65;95112.13;5035407;23;20054;-80
2022/06/02 02:36:24;;;;;;;25.98;14.02;;;;;;;17.51;70.69;95114.00;5013761;28;20450;-80
2022/06/02 02:38:59;;;;;;;33.47;17.13;;;;;;;17.51;70.81;95108.72;5048309;23;20041;-79
2022/06/02 02:41:34;;;;;;;27.50;13.13;;;;;;;17.50;70.61;95120.31;5046295;28;20030;-82
2022/06/02 02:44:06;;;;;;;29.50;11.88;;;;;;;17.52;70.39;95110.31;5030902;28;20034;-79
2022/06/02 02:46:37;;;;;;;25.25;11.23;;;;;;;17.53;70.08;95109.25;5039995;28;20037;-79
2022/06/02 02:49:12;;;;;;;39.92;14.18;;;;;;;17.50;70.17;95107.16;5013588;28;20101;-79
2022/06/02 02:51:47;;;;;;;28.73;11.02;;;;;;;17.50;70.43;95109.78;5025192;23;20132;-80
2022/06/02 02:54:40;;;;;;;33.65;9.63;;;;;;;17.48;70.52;95119.78;5006251;28;20034;-80
2022/06/02 02:57:14;;;;;;;10.13;5.43;;;;;;;17.53;70.66;95117.94;5005610;28;20035;-81
2022/06/02 02:59:52;;;;;;;9.05;5.55;;;;;;;17.57;70.12;95116.34;5014522;28;20026;-80
2022/06/02 03:02:28;;;;;;;12.52;5.25;;;;;;;17.59;69.93;95118.72;5007846;28;20097;-80
2022/06/02 03:05:15;;;;;;;8.98;6.55;;;;;;;17.58;70.13;95119.78;4988892;28;20050;-80
2022/06/02 03:07:41;;;;;;;17.83;6.10;;;;;;;17.63;69.90;95125.00;5084235;23;20055;-80
2022/06/02 03:10:08;;;;;;;11.98;6.68;;;;;;;17.67;69.48;95126.03;5047027;28;20041;-81
2022/06/02 03:12:41;;;;;;;14.75;6.97;;;;;;;17.72;68.94;95130.53;5020993;28;20030;-80
2022/06/02 03:15:24;;;;;;;15.93;7.20;;;;;;;17.77;68.96;95133.94;5028440;28;20042;-80
2022/06/02 03:17:53;;;;;;;26.25;6.53;;;;;;;17.82;68.89;95133.91;5029637;28;20029;-80
2022/06/02 03:20:23;;;;;;;26.27;8.20;;;;;;;17.85;68.62;95125.47;5026910;28;20033;-80
2022/06/02 03:22:54;;;;;;;48.88;10.02;;;;;;;17.89;68.40;95126.50;5026623;28;20029;-80
2022/06/02 03:25:45;;;;;;;38.27;8.87;;;;;;;17.91;68.15;95124.41;5076886;23;20079;-79
2022/06/02 03:28:14;;;;;;;36.63;8.95;;;;;;;17.98;68.17;95122.25;5012041;28;20033;-79
2022/06/02 03:30:57;;;;;;;28.75;9.27;;;;;;;17.99;67.90;95126.47;5027826;28;20041;-79
2022/06/02 03:33:32;;;;;;;23.65;8.85;;;;;;;18.07;68.03;95121.72;5049256;23;20048;-80
2022/06/02 03:36:18;;;;;;;23.85;8.80;;;;;;;18.18;67.53;95131.13;5030166;23;20041;-81
2022/06/02 03:39:07;;;;;;;33.55;10.45;;;;;;;18.28;67.22;95131.06;4991226;28;20034;-80
2022/06/02 03:41:44;;;;;;;28.30;11.05;;;;;;;18.34;66.91;95135.25;5102220;23;20049;-81
2022/06/02 03:44:34;;;;;;;39.45;12.07;;;;;;;18.44;66.90;95127.28;5016941;28;20034;-79
2022/06/02 03:47:05;;;;;;;44.78;13.77;;;;;;;18.57;66.68;95118.00;5028746;28;20038;-80
2022/06/02 03:52:16;;;;;;;30.05;11.15;;;;;;;18.78;66.34;95114.19;5031506;23;20050;-80
2022/06/02 03:55:02;;;;;;;26.15;12.25;;;;;;;18.89;65.65;95118.31;5016202;28;20065;-80
2022/06/02 03:57:56;;;;;;;29.88;14.38;;;;;;;18.98;65.68;95121.13;5026501;23;20163;-80
2022/06/02 04:00:31;;;;;;;30.15;15.80;;;;;;;19.33;64.77;95111.31;5013773;28;20042;-81
2022/06/02 04:03:00;;;;;;;24.85;15.13;;;;;;;21.08;59.51;95114.88;5014885;28;20030;-81
2022/06/02 04:05:48;;;;;;;25.45;14.27;;;;;;;23.33;52.86;95105.41;4997121;28;20096;-79
2022/06/02 04:08:13;;;;;;;28.65;10.80;;;;;;;25.54;46.75;95098.56;5019432;28;20051;-81
2022/06/02 04:10:53;;;;;;;39.08;9.63;;;;;;;27.34;41.74;95095.00;5016105;28;20034;-81
2022/06/02 04:13:37;;;;;;;14.23;7.65;;;;;;;29.22;37.98;95097.97;5013798;28;20033;-81
2022/06/02 04:16:17;;;;;;;21.25;7.57;;;;;;;30.81;33.87;95098.63;5022657;28;20033;-79
2022/06/02 04:18:52;;;;;;;11.55;5.28;;;;;;;32.20;32.14;95097.19;5030246;28;20025;-80
2022/06/02 04:22:09;;;;;;;14.75;5.32;;;;;;;33.46;29.81;95099.53;5021629;28;20387;-81
2022/06/02 04:24:49;;;;;;;26.98;6.00;;;;;;;35.00;27.26;95102.13;5008232;28;20061;-82
2022/06/02 04:27:20;;;;;;;35.17;7.43;;;;;;;36.18;25.79;95094.94;5013141;28;20078;-81
2022/06/02 04:30:17;;;;;;;19.45;4.63;;;;;;;37.25;24.73;95098.03;5013677;28;20077;-80
2022/06/02 04:32:49;;;;;;;10.80;3.97;;;;;;;38.31;22.35;95106.63;4990789;28;20045;-80
2022/06/02 04:35:38;;;;;;;11.75;4.22;;;;;;;38.84;21.53;95103.31;5012280;28;20026;-81
2022/06/02 04:38:10;;;;;;;10.13;3.88;;;;;;;39.26;20.86;95109.44;4995926;28;20038;-81
2022/06/02 04:41:00;;;;;;;13.48;4.40;;;;;;;39.76;20.27;95117.66;5014031;28;20037;-81
2022/06/02 04:44:03;;;;;;;12.05;4.05;;;;;;;40.55;19.26;95119.09;5013540;28;20026;-81
2022/06/02 04:47:06;;;;;;;13.30;3.80;;;;;;;41.50;18.84;95123.81;5030606;28;20164;-82
2022/06/02 04:49:53;;;;;;;13.57;4.40;;;;;;;42.16;17.82;95119.94;5027986;28;20027;-81
2022/06/02 04:52:48;;;;;;;13.40;4.20;;;;;;;43.02;17.35;95121.19;5016969;28;20084;-81
2022/06/02 04:55:30;;;;;;;26.60;4.38;;;;;;;43.73;16.57;95124.56;5012436;28;20046;-79
2022/06/02 04:58:00;;;;;;;27.30;5.03;;;;;;;44.43;16.12;95128.16;5013861;28;20037;-81
2022/06/02 05:00:44;;;;;;;17.38;4.85;;;;;;;44.82;15.51;95124.81;5020682;28;20061;-80
2022/06/02 05:03:27;;;;;;;21.65;4.70;;;;;;;45.34;15.05;95126.09;5013486;28;20034;-81
2022/06/02 05:06:13;;;;;;;32.03;5.57;;;;;;;45.65;15.10;95117.84;5305113;23;20063;-80
2022/06/02 05:09:06;;;;;;;26.58;5.20;;;;;;;46.15;14.30;95124.09;5012911;28;20049;-81
2022/06/02 05:12:03;;;;;;;16.73;5.00;;;;;;;46.92;13.80;95116.50;5003626;28;20064;-81
2022/06/02 05:14:39;;;;;;;16.42;3.55;;;;;;;47.40;13.36;95105.66;5014048;28;20038;-80
2022/06/02 05:17:18;;;;;;;15.73;3.65;;;;;;;47.83;13.22;95104.38;5028777;28;20045;-81
2022/06/02 05:20:20;;;;;;;12.18;3.25;;;;;;;48.39;12.62;95105.59;5014089;28;20401;-80
2022/06/02 05:23:03;;;;;;;9.10;3.20;;;;;;;48.99;12.04;95109.25;4997004;28;20042;-80
2022/06/02 05:26:06;;;;;;;17.45;3.50;;;;;;;49.43;11.81;95108.47;5012607;28;20025;-81
2022/06/02 05:28:55;;;;;;;13.23;3.60;;;;;;;49.93;12.12;95111.97;5013398;28;20037;-81
2022/06/02 05:31:39;;;;;;;12.80;3.60;;;;;;;50.44;11.61;95108.63;5013394;28;20076;-81
2022/06/02 05:35:00;;;;;;;12.38;2.90;;;;;;;50.79;10.30;95104.25;5013209;28;20464;-81
2022/06/02 05:37:44;;;;;;;9.65;2.85;;;;;;;50.69;10.49;95103.63;5031054;28;20044;-81
2022/06/02 05:40:18;;;;;;;7.38;2.75;;;;;;;51.02;10.56;95106.72;5031233;28;20034;-82
2022/06/02 05:43:02;;;;;;;18.23;2.78;;;;;;;51.43;10.37;95105.84;5013077;28;20413;-81
2022/06/02 05:45:30;;;;;;;16.10;3.22;;;;;;;51.59;10.12;95108.72;5013110;28;20041;-81
2022/06/02 05:48:15;;;;;;;28.15;3.80;;;;;;;51.15;10.45;95108.34;5013053;28;20085;-80
2022/06/02 05:51:01;;;;;;;13.93;3.88;;;;;;;48.89;12.04;95118.84;5013303;28;20034;-81
2022/06/02 05:54:04;;;;;;;17.95;3.20;;;;;;;49.29;11.40;95108.00;4995996;28;20026;-81
2022/06/02 05:56:33;;;;;;;11.40;4.03;;;;;;;49.79;10.83;95110.00;5022792;28;20049;-80
2022/06/02 05:59:07;;;;;;;9.93;3.65;;;;;;;50.32;10.97;95101.44;5023469;28;20524;-81
2022/06/02 06:01:56;;;;;;;21.80;3.45;;;;;;;49.99;11.08;95112.06;5024535;28;20038;-80
2022/06/02 06:04:47;;;;;;;14.68;4.05;;;;;;;50.34;11.03;95098.97;5022613;28;20046;-81
2022/06/02 06:07:25;;;;;;;13.57;3.92;;;;;;;49.24;11.51;95111.41;4999620;28;20480;-81
2022/06/02 06:10:12;;;;;;;15.77;4.43;;;;;;;49.45;11.19;95108.75;4997204;28;20038;-81
2022/06/02 06:13:18;;;;;;;23.85;3.92;;;;;;;49.68;11.42;95105.09;5011130;28;20122;-81
2022/06/02 06:16:01;;;;;;;11.65;4.38;;;;;;;49.67;10.96;95100.06;5012151;28;20046;-81
2022/06/02 06:18:27;;;;;;;14.63;4.18;;;;;;;49.28;11.27;95111.97;5012875;28;20093;-81
2022/06/02 06:21:03;;;;;;;16.00;4.53;;;;;;;49.20;11.73;95108.09;5019691;28;20102;-81
2022/06/02 06:23:38;;;;;;;13.35;3.83;;;;;;;48.19;11.78;95102.69;4995633;28;20041;-81
2022/06/02 06:26:31;;;;;;;17.58;5.05;;;;;;;48.77;11.98;95112.34;5014566;28;20095;-84
2022/06/02 06:29:12;;;;;;;19.75;4.10;;;;;;;48.12;12.16;95106.53;5013452;28;20042;-80
2022/06/02 06:31:59;;;;;;;27.30;4.88;;;;;;;47.91;12.37;95102.09;5022820;28;20113;-80
2022/06/02 06:34:33;;;;;;;13.10;4.38;;;;;;;48.22;12.60;95100.97;5013079;28;20573;-80
2022/06/02 06:37:18;;;;;;;16.38;4.70;;;;;;;47.58;12.62;95099.34;5015441;28;20052;-80
2022/06/02 06:40:12;;;;;;;12.70;4.22;;;;;;;47.15;12.97;95089.53;5018042;28;20034;-81
2022/06/02 06:43:03;;;;;;;12.65;4.72;;;;;;;47.66;12.75;95092.25;5020504;28;20034;-81
2022/06/02 06:46:04;;;;;;;15.80;4.78;;;;;;;47.86;12.41;95088.94;5022876;28;20433;-80
2022/06/02 06:48:36;;;;;;;15.45;4.57;;;;;;;47.55;12.52;95100.28;5028842;28;20044;-84
2022/06/02 06:51:38;;;;;;;13.32;4.40;;;;;;;47.32;13.01;95087.94;4992538;28;20102;-82
2022/06/02 06:54:55;;;;;;;20.58;4.55;;;;;;;46.69;13.62;95089.56;5021716;28;20037;-82
2022/06/02 06:57:48;;;;;;;7.88;4.25;;;;;;;46.25;13.88;95087.13;5039021;28;20145;-83
2022/06/02 07:00:19;;;;;;;25.15;4.38;;;;;;;45.34;14.65;95082.16;5018204;28;20053;-80
2022/06/02 07:03:02;;;;;;;17.05;4.22;;;;;;;44.49;15.62;95091.53;5020045;28;20040;-80
2022/06/02 07:05:51;;;;;;;18.35;5.63;;;;;;;43.18;16.25;95084.75;5020100;28;20034;-81
2022/06/02 07:08:19;;;;;;;17.02;5.40;;;;;;;42.48;17.25;95084.34;5017090;28;20125;-81
2022/06/02 07:11:05;;;;;;;17.83;4.97;;;;;;;42.24;17.53;95080.28;5009698;28;20647;-81
2022/06/02 07:13:48;;;;;;;20.50;4.88;;;;;;;41.85;18.62;95082.03;5026628;28;20091;-81
2022/06/02 07:16:26;;;;;;;22.05;4.47;;;;;;;41.47;17.98;95084.47;5010133;28;20033;-80
2022/06/02 07:18:54;;;;;;;14.38;4.63;;;;;;;41.03;18.67;95089.31;5027012;28;20093;-81
2022/06/02 07:21:27;;;;;;;11.45;5.13;;;;;;;40.39;18.73;95090.56;5028404;28;20037;-82
2022/06/02 07:24:15;;;;;;;14.85;4.80;;;;;;;39.67;19.71;95095.63;5019149;28;20608;-81
2022/06/02 07:26:50;;;;;;;14.93;4.47;;;;;;;38.93;20.27;95091.97;5028536;28;20026;-81
2022/06/02 07:29:37;;;;;;;15.52;5.20;;;;;;;38.40;21.28;95093.31;5028966;28;20045;-81
2022/06/02 07:32:06;;;;;;;13.27;5.03;;;;;;;37.83;21.67;95093.84;5031493;28;20044;-82
2022/06/02 07:34:54;;;;;;;12.82;5.20;;;;;;;37.45;22.20;95091.00;5016674;28;20030;-82
2022/06/02 07:37:22;;;;;;;21.05;5.07;;;;;;;37.24;22.33;95091.09;5017539;28;20479;-82
2022/06/02 07:40:13;;;;;;;13.15;5.07;;;;;;;37.06;22.77;95095.84;5018078;28;20053;-82
2022/06/02 07:42:50;;;;;;;12.57;4.93;;;;;;;36.79;22.86;95087.44;5015195;28;20052;-80
2022/06/02 07:46:09;;;;;;;16.92;4.43;;;;;;;36.37;23.62;95089.88;5015626;28;20057;-81
2022/06/02 07:48:56;;;;;;;17.50;4.70;;;;;;;36.13;23.66;95082.56;4994649;28;20105;-79
2022/06/02 07:51:36;;;;;;;16.17;4.50;;;;;;;35.98;24.15;95089.16;5015821;28;20080;-79
2022/06/02 07:54:10;;;;;;;14.57;4.38;;;;;;;35.86;23.98;95092.25;5022550;28;20030;-78
2022/06/02 07:56:57;;;;;;;20.85;4.45;;;;;;;35.49;24.07;95093.38;5016630;28;20030;-78
2022/06/02 07:59:38;;;;;;;13.38;4.00;;;;;;;35.38;25.38;95081.75;5015649;28;20033;-78
2022/06/02 08:02:29;;;;;;;19.05;4.55;;;;;;;35.33;25.25;95087.53;5014212;28;20026;-78
2022/06/02 08:05:00;;;;;;;13.88;4.95;;;;;;;35.13;25.91;95089.78;5014877;28;20030;-78
2022/06/02 08:07:43;;;;;;;15.75;4.85;;;;;;;34.92;26.30;95090.50;5016361;28;20116;-78
2022/06/02 08:10:28;;;;;;;25.77;5.13;;;;;;;34.71;26.30;95090.41;4997278;28;20041;-78
2022/06/02 08:13:08;;;;;;;21.20;4.30;;;;;;;34.50;25.48;95094.56;5021610;28;20042;-79
2022/06/02 08:16:08;;;;;;;23.65;5.15;;;;;;;34.23;26.69;95083.19;5014165;28;20545;-78
2022/06/02 08:18:52;;;;;;;11.38;4.20;;;;;;;34.08;26.34;95083.47;5014601;28;20608;-80
2022/06/02 08:21:32;;;;;;;17.48;5.03;;;;;;;33.94;27.28;95078.75;5013887;28;20049;-77
2022/06/02 08:24:16;;;;;;;12.93;4.30;;;;;;;33.87;27.26;95084.88;4995430;28;20038;-79
2022/06/02 08:27:19;;;;;;;23.45;4.70;;;;;;;33.84;26.39;95082.09;5018988;28;20114;-79
2022/06/02 08:30:17;;;;;;;19.98;4.40;;;;;;;33.71;26.82;95081.66;5023334;28;20018;-79
2022/06/02 08:32:43;;;;;;;25.48;4.38;;;;;;;33.62;27.56;95078.47;5014393;28;20033;-78
2022/06/02 08:35:17;;;;;;;19.55;4.30;;;;;;;33.62;28.13;95081.16;5018924;28;20077;-79
2022/06/02 08:38:20;;;;;;;15.80;4.47;;;;;;;33.55;28.33;95081.13;5022661;28;20034;-79
2022/06/02 08:41:29;;;;;;;16.05;4.68;;;;;;;33.32;28.76;95076.63;5017589;28;20072;-79
2022/06/02 08:44:39;;;;;;;24.35;4.80;;;;;;;33.00;27.96;95080.94;5017822;28;20032;-79
2022/06/02 08:47:25;;;;;;;12.70;4.28;;;;;;;32.69;27.99;95080.16;5024803;28;20045;-79
2022/06/02 08:50:20;;;;;;;20.13;4.40;;;;;;;32.63;28.11;95075.47;5017330;28;20030;-79
2022/06/02 08:53:07;;;;;;;14.48;4.88;;;;;;;32.57;27.84;95085.81;5010960;28;20083;-79
2022/06/02 08:55:41;;;;;;;21.50;4.85;;;;;;;32.27;28.30;95087.69;5020584;28;20037;-79
2022/06/02 08:58:13;;;;;;;16.13;5.38;;;;;;;31.79;29.93;95081.97;5024056;28;20042;-79
2022/06/02 09:01:04;;;;;;;20.33;5.20;;;;;;;31.48;30.18;95073.00;5026282;28;20104;-79
2022/06/02 09:03:49;;;;;;;;;;;;;;;31.40;29.99;95078.59;5018345;28;20050;-79
2022/06/02 09:06:56;;;;;;;17.30;4.65;;;;;;;31.27;30.12;95078.03;5033611;28;19992;-79
2022/06/02 09:09:40;;;;;;;21.05;5.25;;;;;;;31.17;30.03;95084.72;5024791;28;20095;-79
2022/06/02 09:12:15;;;;;;;11.45;4.32;;;;;;;31.25;30.56;95081.06;5018130;28;20116;-79
2022/06/02 09:14:58;;;;;;;13.70;5.13;;;;;;;31.28;30.05;95074.97;5017917;28;20609;-80
2022/06/02 09:17:35;;;;;;;14.75;3.85;;;;;;;31.31;29.98;95078.84;5016319;28;20040;-80
2022/06/02 09:20:13;;;;;;;12.68;3.70;;;;;;;31.30;29.71;95075.38;5016708;28;20038;-79
2022/06/02 09:22:45;;;;;;;11.55;4.00;;;;;;;31.34;30.56;95076.22;5010811;28;20030;-79
2022/06/02 09:25:21;;;;;;;9.98;3.92;;;;;;;31.35;28.92;95074.31;5016656;28;20041;-79
2022/06/02 09:27:50;;;;;;;13.40;3.75;;;;;;;31.27;27.60;95078.03;5017736;28;20026;-79
2022/06/02 09:30:19;;;;;;;23.98;4.13;;;;;;;31.14;26.85;95073.91;5006637;28;20153;-79
2022/06/02 09:36:26;;;;;;;20.35;4.20;;;;;;;31.13;28.53;95077.72;5038959;23;20053;-78
2022/06/02 09:39:06;;;;;;;13.57;3.00;;;;;;;31.06;26.54;95068.41;4999059;28;20450;-78
2022/06/02 09:41:37;;;;;;;15.10;3.50;;;;;;;31.04;25.63;95067.97;4994932;28;20456;-78
2022/06/02 09:44:04;;;;;;;8.85;3.50;;;;;;;31.06;26.97;95063.03;4980511;28;20488;-77
2022/06/02 09:46:54;;;;;;;16.13;3.42;;;;;;;31.02;27.70;95064.88;4979212;28;20081;-78
2022/06/02 09:49:46;;;;;;;8.68;2.60;;;;;;;30.97;24.85;95062.50;4995364;28;20034;-79
2022/06/02 09:52:42;;;;;;;6.32;2.28;;;;;;;30.38;22.71;95063.59;4982703;28;20074;-77
2022/06/02 09:55:13;;;;;;;15.38;2.45;;;;;;;30.23;22.29;95064.41;4979493;28;20110;-76
2022/06/02 09:58:26;;;;;;;21.10;9.60;;;;;;;30.23;29.06;95059.06;5004543;28;20113;-77
2022/06/02 10:01:11;;;;;;;55.38;11.32;;;;;;;30.26;28.08;95060.25;4982124;28;20405;-77
2022/06/02 10:04:02;;;;;;;17.45;5.55;;;;;;;30.18;28.08;95056.66;4959226;28;20058;-78
2022/06/02 10:06:46;;;;;;;38.38;13.20;;;;;;;30.20;33.66;95051.72;4997991;28;20031;-77
2022/06/02 10:09:43;;;;;;;35.88;13.77;;;;;;;30.19;34.60;95047.47;4997983;28;20172;-78
2022/06/02 10:14:58;;;;;;;8.48;3.05;;;;;;;29.99;24.62;95053.91;4982408;28;20145;-78
2022/06/02 10:17:27;;;;;;;17.35;3.35;;;;;;;29.72;24.83;95053.69;4985716;28;20064;-77
2022/06/02 10:20:04;;;;;;;9.55;3.13;;;;;;;29.53;25.84;95048.25;4982786;28;20065;-77
2022/06/02 10:22:55;;;;;;;18.02;6.60;;;;;;;29.49;28.40;95053.53;5007784;28;20838;-77
2022/06/02 10:25:34;;;;;;;13.57;2.80;;;;;;;29.29;25.51;95049.19;4985891;28;20054;-78
2022/06/02 10:28:18;;;;;;;14.38;3.22;;;;;;;29.26;25.71;95049.84;4993176;28;20038;-78
2022/06/02 10:31:08;;;;;;;16.10;2.80;;;;;;;29.17;24.58;95041.22;4983689;28;20501;-78
2022/06/02 10:33:36;;;;;;;11.50;2.97;;;;;;;29.22;25.80;95033.69;4989503;28;20026;-78
2022/06/02 10:36:23;;;;;;;20.17;8.27;;;;;;;29.31;31.71;95030.88;4988723;28;20097;-78
2022/06/02 10:39:04;;;;;;;13.95;3.08;;;;;;;29.40;25.95;95033.34;5007514;28;20030;-78
2022/06/02 10:42:00;;;;;;;11.25;4.35;;;;;;;29.47;28.03;95020.16;4984150;28;20046;-78
2022/06/02 10:44:38;;;;;;;17.50;6.57;;;;;;;29.47;28.78;95020.16;5009521;28;20046;-78
2022/06/02 10:47:34;;;;;;;10.95;4.30;;;;;;;29.47;26.31;95014.81;5006468;28;20042;-76
2022/06/02 10:50:27;;;;;;;10.38;2.75;;;;;;;29.44;28.15;95007.41;4981938;28;20069;-76
2022/06/02 10:53:01;;;;;;;10.77;4.00;;;;;;;29.46;27.76;95010.59;4979891;28;20089;-77
2022/06/02 10:55:53;;;;;;;15.73;2.83;;;;;;;29.41;25.96;95002.75;5003795;28;20034;-76
2022/06/02 10:58:49;;;;;;;16.38;6.35;;;;;;;29.37;29.38;95008.03;4977725;28;20046;-76
2022/06/02 11:01:30;;;;;;;20.33;10.30;;;;;;;29.33;33.19;95011.75;4982785;28;20045;-75
2022/06/02 11:04:20;;;;;;;11.13;2.33;;;;;;;29.22;25.70;95006.91;4982233;28;20031;-76
2022/06/02 11:07:17;;;;;;;10.93;3.03;;;;;;;29.32;26.54;95002.94;4997194;28;20062;-76
2022/06/02 11:10:10;;;;;;;16.48;6.63;;;;;;;29.24;30.39;94999.31;5004260;28;20038;-76
2022/06/02 11:12:51;;;;;;;8.55;2.80;;;;;;;29.18;28.07;94995.34;4981357;28;20466;-77
2022/06/02 11:15:39;;;;;;;10.60;2.65;;;;;;;29.03;29.08;95009.50;4982380;28;20077;-77
2022/06/02 11:18:07;;;;;;;13.25;3.03;;;;;;;28.97;29.78;95005.53;4981669;28;20703;-77
2022/06/02 11:20:54;;;;;;;14.80;5.05;;;;;;;29.07;29.99;95002.31;4980383;28;20031;-77
2022/06/02 11:23:49;;;;;;;5.43;2.50;;;;;;;29.03;29.68;95003.38;4981083;28;20039;-77
2022/06/02 11:26:36;;;;;;;13.60;5.10;;;;;;;29.16;32.19;95002.94;4985050;28;20057;-77
2022/06/02 11:29:25;;;;;;;10.10;3.17;;;;;;;29.35;30.31;95004.94;5005018;28;20888;-77
2022/06/02 11:32:12;;;;;;;5.22;3.70;;;;;;;29.47;31.83;95006.78;5005152;28;20022;-78
2022/06/02 11:34:47;;;;;;;6.35;2.58;;;;;;;29.30;29.06;95005.19;5006177;28;20058;-77
2022/06/02 11:37:26;;;;;;;14.05;2.97;;;;;;;29.35;29.78;94988.06;5005034;28;20050;-77
2022/06/02 11:40:08;;;;;;;10.65;3.38;;;;;;;29.27;29.92;94993.25;5005269;28;20034;-78
2022/06/02 11:42:43;;;;;;;9.32;2.55;;;;;;;29.16;30.45;95002.94;4989538;28;20035;-77
2022/06/02 11:45:15;;;;;;;9.77;4.00;;;;;;;29.33;31.69;94985.75;4982733;28;20034;-78
2022/06/02 11:48:01;;;;;;;10.90;3.35;;;;;;;29.51;30.85;94986.19;4981926;28;20052;-77
2022/06/02 11:50:43;;;;;;;10.38;2.85;;;;;;;29.38;30.07;94992.75;4987661;28;20043;-77
2022/06/02 11:53:35;;;;;;;10.75;2.72;;;;;;;29.35;29.85;94988.06;4989111;28;20494;-75
2022/06/02 11:56:35;;;;;;;9.38;2.78;;;;;;;29.21;30.29;94994.66;4981713;28;20121;-75
2022/06/02 11:59:29;;;;;;;8.50;2.65;;;;;;;29.20;30.90;94977.03;4981701;28;20132;-75
2022/06/02 12:02:18;;;;;;;9.43;2.92;;;;;;;29.18;30.90;94973.91;4987972;28;20921;-75
2022/06/02 12:05:24;;;;;;;3.58;2.10;;;;;;;29.16;31.10;94973.50;4980808;28;20061;-75
2022/06/02 12:08:11;;;;;;;5.47;2.47;;;;;;;29.18;30.87;94976.59;4991695;28;20046;-75
2022/06/02 12:11:08;;;;;;;6.25;2.65;;;;;;;29.25;30.50;94978.66;4979667;28;20081;-75
2022/06/02 12:13:44;;;;;;;7.15;2.55;;;;;;;29.41;29.73;94973.28;4984080;28;20646;-75
2022/06/02 12:16:43;;;;;;;6.13;2.40;;;;;;;29.41;29.24;94970.59;4978869;28;20069;-75
2022/06/02 12:19:42;;;;;;;9.10;3.10;;;;;;;29.41;30.17;94966.03;5004040;28;20464;-75
2022/06/02 12:22:32;;;;;;;8.63;2.80;;;;;;;29.37;31.66;94965.19;4980747;28;20050;-75
2022/06/02 12:25:05;;;;;;;8.57;2.88;;;;;;;29.09;31.75;94978.66;4976055;28;20593;-74
2022/06/02 12:28:16;;;;;;;6.97;2.78;;;;;;;28.90;31.41;94978.56;5003766;28;20027;-75
2022/06/02 12:31:04;;;;;;;11.55;3.20;;;;;;;28.34;31.00;94982.06;4975150;28;20605;-75
2022/06/02 12:33:56;;;;;;;14.63;3.00;;;;;;;28.10;31.36;94988.22;4978378;28;20074;-74
2022/06/02 12:36:27;;;;;;;6.07;3.15;;;;;;;28.04;31.33;94981.56;4998854;28;20058;-74
2022/06/02 12:38:58;;;;;;;5.65;3.50;;;;;;;28.06;32.51;94975.88;4979025;28;20035;-74
2022/06/02 12:41:52;;;;;;;6.50;2.97;;;;;;;28.13;31.88;94977.94;4979198;28;20706;-74
2022/06/02 12:44:32;;;;;;;8.15;3.13;;;;;;;28.17;31.81;94979.63;4977821;28;20022;-74
2022/06/02 12:46:57;;;;;;;12.52;3.83;;;;;;;28.24;32.89;94984.38;4980039;28;20101;-74
2022/06/02 12:49:25;;;;;;;5.78;3.13;;;;;;;28.33;32.57;94983.16;4987377;28;20038;-74
2022/06/02 12:52:28;;;;;;;13.38;3.25;;;;;;;28.20;32.57;94978.16;4983795;28;20379;-74
2022/06/02 12:55:02;;;;;;;7.53;2.92;;;;;;;28.17;32.60;94984.19;4978942;28;20042;-74
2022/06/02 12:58:04;;;;;;;7.10;2.92;;;;;;;28.16;32.98;94979.97;4979476;28;20065;-75
2022/06/02 13:00:29;;;;;;;22.75;3.50;;;;;;;28.29;33.71;94982.28;4979706;28;20517;-74
2022/06/02 13:03:26;;;;;;;9.10;3.35;;;;;;;28.40;34.29;94982.56;4980416;28;20060;-74